createdAt,value
2023-05-21T00:00:42.962Z,20397.16
2023-05-21T00:03:14.043Z,20356.50
2023-05-21T00:05:42.537Z,20360.59
2023-05-21T00:08:10.970Z,20395.13
2023-05-21T00:10:39.124Z,20397.16
2023-05-21T00:13:08.958Z,20352.44
2023-05-21T00:15:38.524Z,20384.97
2023-05-21T00:18:07.227Z,20387.00
2023-05-21T00:20:35.556Z,20366.69
2023-05-21T00:23:04.102Z,20328.06
2023-05-21T00:25:32.556Z,20362.63
2023-05-21T00:28:00.740Z,20350.41
2023-05-21T00:30:28.924Z,20350.41
2023-05-21T00:33:02.503Z,20421.56
2023-05-21T00:35:31.224Z,20387.00
2023-05-21T00:38:00.611Z,20324.00
2023-05-21T00:40:28.795Z,20346.34
2023-05-21T00:42:57.246Z,20399.19
2023-05-21T00:45:25.521Z,20326.03
2023-05-21T00:47:55.565Z,20380.91
2023-05-21T00:50:25.987Z,20350.41
2023-05-21T00:52:54.370Z,20356.50
2023-05-21T00:55:23.042Z,20315.88
2023-05-21T00:57:51.519Z,20374.81
2023-05-21T01:00:20.833Z,20332.13
2023-05-21T01:02:49.939Z,20326.03
2023-05-21T01:05:18.369Z,20271.16
2023-05-21T01:07:48.310Z,20315.88
2023-05-21T01:10:16.883Z,20324.00
2023-05-21T01:12:47.306Z,20315.88
2023-05-21T01:15:15.898Z,20326.03
2023-05-21T01:17:46.075Z,20279.28
2023-05-21T01:20:18.163Z,20358.56
2023-05-21T01:22:54.339Z,20324.00
2023-05-21T01:25:23.246Z,20305.69
2023-05-21T01:27:51.856Z,20281.31
2023-05-21T01:30:22.476Z,20291.47
2023-05-21T01:33:03.520Z,20265.03
2023-05-21T01:35:36.865Z,20295.53
2023-05-21T01:38:17.503Z,20252.84
2023-05-21T01:40:54.256Z,20277.25
2023-05-21T01:43:25.171Z,20238.63
2023-05-21T01:45:56.874Z,20236.59
2023-05-21T01:48:28.238Z,20222.38
2023-05-21T01:50:58.759Z,20248.78
2023-05-21T01:53:28.476Z,20244.72
2023-05-21T01:55:56.659Z,20283.34
2023-05-21T01:58:24.900Z,20265.03
2023-05-21T02:00:53.152Z,20256.91
2023-05-21T02:03:22.038Z,20220.34
2023-05-21T02:05:51.947Z,20210.16
2023-05-21T02:08:20.601Z,20212.19
2023-05-21T02:10:50.229Z,20214.22
2023-05-21T02:13:20.369Z,20189.84
2023-05-21T02:15:48.586Z,20193.91
2023-05-21T02:18:18.416Z,20187.81
2023-05-21T02:20:46.555Z,20153.25
2023-05-21T02:23:14.750Z,20230.50
2023-05-21T02:25:42.913Z,20155.28
2023-05-21T02:28:12.812Z,20167.47
2023-05-21T02:30:40.933Z,20163.41
2023-05-21T02:33:09.681Z,20137.00
2023-05-21T02:35:38.976Z,20128.88
2023-05-21T02:38:09.160Z,20120.75
2023-05-21T02:40:37.328Z,20134.97
2023-05-21T02:43:05.443Z,20128.88
2023-05-21T02:45:35.120Z,20137.00
2023-05-21T02:48:03.539Z,20163.41
2023-05-21T02:50:31.682Z,20147.16
2023-05-21T02:53:00.217Z,20153.25
2023-05-21T02:55:28.372Z,20155.28
2023-05-21T02:57:56.564Z,20106.50
2023-05-21T03:00:24.716Z,20116.66
2023-05-21T03:02:54.444Z,20126.84
2023-05-21T03:05:22.963Z,20141.06
2023-05-21T03:07:51.339Z,20185.78
2023-05-21T03:10:19.506Z,20128.88
2023-05-21T03:12:48.118Z,20173.59
2023-05-21T03:15:16.762Z,20153.25
2023-05-21T03:17:45.043Z,20175.63
2023-05-21T03:20:16.504Z,20159.34
2023-05-21T03:22:45.777Z,20153.25
2023-05-21T03:25:14.329Z,20126.84
2023-05-21T03:27:42.664Z,20149.19
2023-05-21T03:30:12.176Z,20132.94
2023-05-21T03:32:41.364Z,20112.59
2023-05-21T03:35:10.074Z,20137.00
2023-05-21T03:37:39.628Z,20132.94
2023-05-21T03:40:09.672Z,20141.06
2023-05-21T03:42:37.827Z,20155.28
2023-05-21T03:45:08.468Z,20096.34
2023-05-21T03:47:36.945Z,20128.88
2023-05-21T03:50:06.293Z,20159.34
2023-05-21T03:52:34.564Z,20137.00
2023-05-21T03:55:04.097Z,20126.84
2023-05-21T03:57:32.353Z,20157.31
2023-05-21T04:00:00.666Z,20167.47
2023-05-21T04:02:29.105Z,20147.16
2023-05-21T04:04:57.400Z,20145.13
2023-05-21T04:07:27.165Z,20167.47
2023-05-21T04:09:55.386Z,20175.63
2023-05-21T04:12:24.869Z,20206.09
2023-05-21T04:14:53.043Z,20175.63
2023-05-21T04:17:21.688Z,20232.53
2023-05-21T04:19:49.846Z,20267.09
2023-05-21T04:22:17.988Z,20252.84
2023-05-21T04:24:46.457Z,20244.72
2023-05-21T04:27:16.584Z,20250.81
2023-05-21T04:29:46.159Z,20248.78
2023-05-21T04:32:15.241Z,20260.97
2023-05-21T04:34:43.454Z,20330.09
2023-05-21T04:37:12.046Z,20338.22
2023-05-21T04:39:42.364Z,20334.16
2023-05-21T04:42:11.055Z,20348.38
2023-05-21T04:44:40.269Z,20350.41
2023-05-21T04:47:10.310Z,20393.09
2023-05-21T04:49:38.487Z,20382.94
2023-05-21T04:52:08.244Z,20389.03
2023-05-21T04:54:36.557Z,20407.34
2023-05-21T04:57:04.814Z,20384.97
2023-05-21T04:59:32.990Z,20411.41
2023-05-21T05:02:01.305Z,20403.25
2023-05-21T05:04:30.777Z,20395.13
2023-05-21T05:06:59.000Z,20460.19
2023-05-21T05:09:27.157Z,20433.75
2023-05-21T05:11:55.456Z,20431.72
2023-05-21T05:14:23.621Z,20447.97
2023-05-21T05:16:51.811Z,20472.38
2023-05-21T05:19:20.057Z,20452.06
2023-05-21T05:21:49.544Z,20537.44
2023-05-21T05:24:17.754Z,20474.41
2023-05-21T05:26:47.033Z,20476.44
2023-05-21T05:29:15.251Z,20508.97
2023-05-21T05:31:43.382Z,20529.28
2023-05-21T05:34:11.539Z,20557.75
2023-05-21T05:36:39.709Z,20574.00
2023-05-21T05:39:09.280Z,20600.44
2023-05-21T05:41:37.388Z,20649.22
2023-05-21T05:44:05.935Z,20689.88
2023-05-21T05:46:34.126Z,20777.28
2023-05-21T05:49:02.301Z,20797.63
2023-05-21T05:51:30.990Z,20838.28
2023-05-21T05:53:59.184Z,20907.41
2023-05-21T05:56:28.613Z,20921.63
2023-05-21T05:58:56.736Z,20944.00
2023-05-21T06:01:26.186Z,20984.66
2023-05-21T06:03:54.480Z,20960.25
2023-05-21T06:06:22.574Z,21009.03
2023-05-21T06:08:50.738Z,21004.97
2023-05-21T06:11:19.109Z,21039.53
2023-05-21T06:13:48.778Z,21090.38
2023-05-21T06:16:16.928Z,21078.16
2023-05-21T06:18:45.125Z,21106.63
2023-05-21T06:21:13.238Z,21118.84
2023-05-21T06:23:41.691Z,21098.50
2023-05-21T06:26:09.801Z,21090.38
2023-05-21T06:28:37.891Z,21126.97
2023-05-21T06:31:07.399Z,21110.69
2023-05-21T06:33:35.573Z,21104.59
2023-05-21T06:36:03.816Z,21108.66
2023-05-21T06:38:31.889Z,21137.13
2023-05-21T06:41:00.004Z,21175.75
2023-05-21T06:43:28.727Z,21157.47
2023-05-21T06:45:56.889Z,21167.63
2023-05-21T06:48:26.314Z,21161.53
2023-05-21T06:50:54.410Z,21208.28
2023-05-21T06:53:22.475Z,21232.69
2023-05-21T06:55:53.572Z,21240.81
2023-05-21T06:58:22.244Z,21287.56
2023-05-21T07:00:50.417Z,21297.75
2023-05-21T07:03:18.572Z,21299.78
2023-05-21T07:05:48.398Z,21316.03
2023-05-21T07:08:16.777Z,21366.88
2023-05-21T07:10:45.036Z,21425.84
2023-05-21T07:13:13.333Z,21423.81
2023-05-21T07:15:41.380Z,21476.66
2023-05-21T07:18:09.499Z,21507.16
2023-05-21T07:20:37.602Z,21539.69
2023-05-21T07:23:07.093Z,21507.16
2023-05-21T07:25:35.605Z,21525.47
2023-05-21T07:28:06.423Z,21535.63
2023-05-21T07:30:34.796Z,21525.47
2023-05-21T07:33:02.973Z,21549.84
2023-05-21T07:35:31.095Z,21537.66
2023-05-21T07:37:59.224Z,21551.91
2023-05-21T07:40:28.699Z,21486.81
2023-05-21T07:42:56.850Z,21505.13
2023-05-21T07:45:25.144Z,21513.25
2023-05-21T07:47:53.323Z,21523.44
2023-05-21T07:50:22.275Z,21533.59
2023-05-21T07:52:50.559Z,21492.94
2023-05-21T07:55:18.799Z,21529.53
2023-05-21T07:57:48.196Z,21549.84
2023-05-21T08:00:17.157Z,21592.56
2023-05-21T08:02:45.506Z,21594.59
2023-05-21T08:05:13.778Z,21574.25
2023-05-21T08:07:41.847Z,21602.72
2023-05-21T08:10:10.602Z,21614.94
2023-05-21T08:12:38.699Z,21619.00
2023-05-21T08:15:09.608Z,21625.09
2023-05-21T08:17:37.685Z,21641.34
2023-05-21T08:20:07.259Z,21680.00
2023-05-21T08:22:35.348Z,21684.06
2023-05-21T08:25:03.458Z,21688.13
2023-05-21T08:27:31.537Z,21724.72
2023-05-21T08:29:59.540Z,21732.84
2023-05-21T08:32:28.957Z,21732.84
2023-05-21T08:34:57.587Z,21724.72
2023-05-21T08:37:25.738Z,21757.25
2023-05-21T08:39:53.778Z,21771.50
2023-05-21T08:42:43.390Z,21777.59
2023-05-21T08:45:14.617Z,21820.28
2023-05-21T08:47:46.515Z,21822.31
2023-05-21T08:50:19.134Z,21842.66
2023-05-21T08:52:47.984Z,21826.41
2023-05-21T08:55:17.525Z,21836.56
2023-05-21T08:57:46.133Z,21846.72
2023-05-21T09:00:15.670Z,21871.13
2023-05-21T09:02:46.383Z,21917.91
2023-05-21T09:05:16.386Z,21934.16
2023-05-21T09:07:52.608Z,21944.34
2023-05-21T09:10:27.919Z,21991.09
2023-05-21T09:12:56.328Z,21962.63
2023-05-21T09:15:24.760Z,21985.00
2023-05-21T09:17:54.660Z,21964.66
2023-05-21T09:20:26.835Z,22011.44
2023-05-21T09:22:55.688Z,22029.75
2023-05-21T09:25:28.127Z,22007.38
2023-05-21T09:27:58.029Z,22037.88
2023-05-21T09:30:29.566Z,22033.81
2023-05-21T09:33:01.558Z,22072.44
2023-05-21T09:35:30.331Z,22062.28
2023-05-21T09:37:58.414Z,22088.72
2023-05-21T09:40:26.494Z,22107.00
2023-05-21T09:42:56.177Z,22145.66
2023-05-21T09:45:26.814Z,22210.72
2023-05-21T09:47:56.760Z,22224.97
2023-05-21T09:50:28.633Z,22229.03
2023-05-21T09:52:58.169Z,22182.25
2023-05-21T09:55:27.879Z,22214.78
2023-05-21T09:57:56.089Z,22206.66
2023-05-21T10:00:27.472Z,22237.16
2023-05-21T10:02:57.915Z,22265.63
2023-05-21T10:05:29.084Z,22259.53
2023-05-21T10:08:02.966Z,22275.81
2023-05-21T10:10:33.582Z,22355.13
2023-05-21T10:13:07.601Z,22405.97
2023-05-21T10:15:40.066Z,22405.97
2023-05-21T10:18:12.022Z,22397.81
2023-05-21T10:20:42.681Z,22430.38
2023-05-21T10:23:12.876Z,22450.69
2023-05-21T10:25:42.798Z,22475.09
2023-05-21T10:28:11.647Z,22499.50
2023-05-21T10:30:40.267Z,22460.88
2023-05-21T10:33:09.228Z,22550.34
2023-05-21T10:35:41.662Z,22627.63
2023-05-21T10:38:11.023Z,22643.91
2023-05-21T10:40:39.277Z,22652.03
2023-05-21T10:43:39.854Z,22684.59
2023-05-21T10:47:06.700Z,22631.72
2023-05-21T10:50:11.228Z,22666.28
2023-05-21T10:53:04.302Z,22660.19
2023-05-21T10:55:53.538Z,22674.41
2023-05-21T10:59:33.092Z,22806.63
2023-05-21T11:02:01.901Z,22810.69
2023-05-21T11:04:30.508Z,22812.72
2023-05-21T11:07:00.533Z,22796.44
2023-05-21T11:09:29.974Z,22782.22
2023-05-21T11:12:00.930Z,22794.41
2023-05-21T11:14:34.863Z,22798.47
2023-05-21T11:17:04.706Z,22790.34
2023-05-21T11:19:38.463Z,22863.56
2023-05-21T11:22:11.824Z,22938.81
2023-05-21T11:24:42.674Z,23010.00
2023-05-21T11:27:12.368Z,23032.38
2023-05-21T11:29:47.124Z,23064.94
2023-05-21T11:32:17.274Z,23144.25
2023-05-21T11:34:47.771Z,23256.13
2023-05-21T11:37:30.955Z,23262.25
2023-05-21T11:40:25.935Z,23274.44
2023-05-21T11:42:56.089Z,23351.75
2023-05-21T11:45:29.388Z,23339.53
2023-05-21T11:47:58.354Z,23309.03
2023-05-21T11:50:27.292Z,23378.19
2023-05-21T11:52:55.972Z,23400.56
2023-05-21T11:55:26.166Z,23404.63
2023-05-21T11:57:56.432Z,23309.03
2023-05-21T12:00:24.656Z,23266.31
2023-05-21T12:02:55.792Z,23292.75
2023-05-21T12:05:25.057Z,23264.28
2023-05-21T12:07:54.585Z,23304.97
2023-05-21T12:10:23.996Z,23331.41
2023-05-21T12:12:56.598Z,23268.34
2023-05-21T12:15:27.884Z,23325.31
2023-05-21T12:17:57.824Z,23319.19
2023-05-21T12:20:28.905Z,23335.47
2023-05-21T12:23:00.080Z,23374.13
2023-05-21T12:25:29.811Z,23388.38
2023-05-21T12:28:01.339Z,23388.38
2023-05-21T12:30:30.685Z,23380.22
2023-05-21T12:33:01.974Z,23382.25
2023-05-21T12:35:32.099Z,23429.03
2023-05-21T12:38:03.210Z,23563.31
2023-05-21T12:40:39.431Z,23494.16
2023-05-21T12:43:09.800Z,23477.88
2023-05-21T12:45:40.549Z,23404.63
2023-05-21T12:48:09.440Z,23412.78
2023-05-21T12:50:41.748Z,23404.63
2023-05-21T12:53:11.913Z,23410.75
2023-05-21T12:55:40.405Z,23406.66
2023-05-21T12:58:09.857Z,23437.19
2023-05-21T13:00:38.603Z,23420.91
2023-05-21T13:03:07.390Z,23422.94
2023-05-21T13:05:36.068Z,23331.41
2023-05-21T13:08:04.518Z,23343.63
2023-05-21T13:10:32.651Z,23368.03
2023-05-21T13:13:01.629Z,23294.78
2023-05-21T13:15:31.100Z,23323.28
2023-05-21T13:18:01.110Z,23349.72
2023-05-21T13:20:29.782Z,23376.16
2023-05-21T13:22:57.891Z,23402.59
2023-05-21T13:25:29.491Z,23394.47
2023-05-21T13:27:58.770Z,23510.41
2023-05-21T13:30:26.979Z,23522.63
2023-05-21T13:32:56.637Z,23571.44
2023-05-21T13:35:24.800Z,23508.38
2023-05-21T13:37:52.897Z,23449.38
2023-05-21T13:40:23.719Z,23532.78
2023-05-21T13:42:51.900Z,23498.22
2023-05-21T13:45:21.778Z,23587.72
2023-05-21T13:47:50.286Z,23585.69
2023-05-21T13:50:19.784Z,23467.69
2023-05-21T13:52:47.863Z,23542.97
2023-05-21T13:55:16.714Z,23508.38
2023-05-21T13:57:45.637Z,23473.81
2023-05-21T14:00:16.010Z,23538.91
2023-05-21T14:02:45.206Z,23469.72
2023-05-21T14:05:13.935Z,23351.75
2023-05-21T14:07:43.453Z,23378.19
2023-05-21T14:10:12.643Z,23378.19
2023-05-21T14:12:40.891Z,23400.56
2023-05-21T14:15:10.643Z,23400.56
2023-05-21T14:17:40.157Z,23355.81
2023-05-21T14:20:11.068Z,23384.28
2023-05-21T14:22:39.699Z,23353.78
2023-05-21T14:25:10.307Z,23422.94
2023-05-21T14:27:38.771Z,23455.50
2023-05-21T14:30:08.544Z,23473.81
2023-05-21T14:32:36.722Z,23420.91
2023-05-21T14:35:06.590Z,23355.81
2023-05-21T14:37:34.725Z,23372.09
2023-05-21T14:40:03.107Z,23286.66
2023-05-21T14:42:32.577Z,23357.84
2023-05-21T14:45:16.975Z,23349.72
2023-05-21T14:47:47.548Z,23250.03
2023-05-21T14:50:18.422Z,23304.97
2023-05-21T14:52:47.047Z,23304.97
2023-05-21T14:55:16.739Z,23300.91
2023-05-21T14:57:46.398Z,23245.97
2023-05-21T15:00:15.311Z,23207.31
2023-05-21T15:02:43.511Z,23205.28
2023-05-21T15:05:11.822Z,23219.53
2023-05-21T15:07:39.961Z,23156.47
2023-05-21T15:10:10.433Z,23174.78
2023-05-21T15:12:38.546Z,23248.00
2023-05-21T15:15:09.703Z,23227.66
2023-05-21T15:17:37.916Z,23201.22
2023-05-21T15:20:07.721Z,23178.84
2023-05-21T15:22:36.303Z,23160.53
2023-05-21T15:25:05.925Z,23201.22
2023-05-21T15:27:34.604Z,23176.81
2023-05-21T15:30:02.969Z,23142.22
2023-05-21T15:32:32.465Z,23115.78
2023-05-21T15:35:00.719Z,23113.75
2023-05-21T15:37:32.023Z,23142.22
2023-05-21T15:40:00.313Z,23125.97
2023-05-21T15:42:31.238Z,23148.34
2023-05-21T15:44:59.395Z,23152.41
2023-05-21T15:47:27.591Z,23134.09
2023-05-21T15:49:58.606Z,23105.63
2023-05-21T15:52:26.902Z,23089.34
2023-05-21T15:54:54.960Z,23058.84
2023-05-21T15:57:23.023Z,23018.16
2023-05-21T15:59:52.468Z,22953.06
2023-05-21T16:02:20.893Z,22890.00
2023-05-21T16:04:49.963Z,22875.78
2023-05-21T16:07:19.521Z,22853.41
2023-05-21T16:09:47.583Z,22800.50
2023-05-21T16:12:15.688Z,22818.81
2023-05-21T16:14:43.745Z,22790.34
2023-05-21T16:17:11.927Z,22745.59
2023-05-21T16:19:40.448Z,22711.03
2023-05-21T16:22:10.630Z,22737.47
2023-05-21T16:24:40.321Z,22739.50
2023-05-21T16:27:08.394Z,22700.84
2023-05-21T16:29:37.598Z,22692.72
2023-05-21T16:32:08.112Z,22654.06
2023-05-21T16:34:36.254Z,22609.34
2023-05-21T16:37:04.418Z,22556.47
2023-05-21T16:39:32.548Z,22558.50
2023-05-21T16:42:02.200Z,22568.66
2023-05-21T16:44:31.691Z,22544.25
2023-05-21T16:47:01.862Z,22536.13
2023-05-21T16:49:29.912Z,22523.91
2023-05-21T16:51:57.984Z,22525.94
2023-05-21T16:54:26.276Z,22464.94
2023-05-21T16:56:55.234Z,22471.03
2023-05-21T16:59:24.709Z,22428.31
2023-05-21T17:01:52.862Z,22401.88
2023-05-21T17:04:21.009Z,22428.31
2023-05-21T17:06:49.080Z,22428.31
2023-05-21T17:09:18.728Z,22416.13
2023-05-21T17:11:46.991Z,22379.53
2023-05-21T17:14:23.248Z,22371.38
2023-05-21T17:17:02.366Z,22361.22
2023-05-21T17:19:30.640Z,22351.03
2023-05-21T17:21:59.017Z,22334.78
2023-05-21T17:24:27.183Z,22285.97
2023-05-21T17:26:55.430Z,22300.22
2023-05-21T17:29:23.617Z,22326.66
2023-05-21T17:31:51.940Z,22306.31
2023-05-21T17:34:24.536Z,22318.50
2023-05-21T17:36:52.746Z,22265.63
2023-05-21T17:39:21.156Z,22247.34
2023-05-21T17:41:49.525Z,22255.47
2023-05-21T17:44:19.131Z,22273.78
2023-05-21T17:46:47.770Z,22239.19
2023-05-21T17:49:16.105Z,22168.03
2023-05-21T17:51:46.460Z,22159.88
2023-05-21T17:54:14.962Z,22176.16
2023-05-21T17:56:46.167Z,22088.72
2023-05-21T17:59:15.880Z,22090.75
2023-05-21T18:01:44.122Z,22080.56
2023-05-21T18:04:13.272Z,22048.03
2023-05-21T18:06:41.573Z,22013.47
2023-05-21T18:09:14.197Z,22021.59
2023-05-21T18:11:44.544Z,21997.19
2023-05-21T18:14:12.813Z,21950.44
2023-05-21T18:16:41.272Z,21948.41
2023-05-21T18:19:09.540Z,21972.81
2023-05-21T18:21:38.997Z,21982.97
2023-05-21T18:24:08.474Z,21909.75
2023-05-21T18:26:37.964Z,21903.66
2023-05-21T18:29:06.138Z,21919.94
2023-05-21T18:31:34.468Z,21875.19
2023-05-21T18:34:02.660Z,21899.59
2023-05-21T18:36:38.328Z,21824.34
2023-05-21T18:39:07.728Z,21797.94
2023-05-21T18:41:37.724Z,21802.00
2023-05-21T18:44:06.903Z,21802.00
2023-05-21T18:46:35.135Z,21810.13
2023-05-21T18:49:03.364Z,21726.75
2023-05-21T18:51:31.488Z,21702.34
2023-05-21T18:53:59.751Z,21710.50
2023-05-21T18:56:27.903Z,21720.66
2023-05-21T18:58:57.397Z,21698.28
2023-05-21T19:01:25.666Z,21663.72
2023-05-21T19:03:53.828Z,21645.44
2023-05-21T19:06:25.352Z,21643.38
2023-05-21T19:08:53.698Z,21604.75
2023-05-21T19:11:23.570Z,21631.19
2023-05-21T19:13:51.953Z,21578.31
2023-05-21T19:16:21.490Z,21612.88
2023-05-21T19:18:49.757Z,21580.34
2023-05-21T19:21:18.246Z,21588.50
2023-05-21T19:23:53.094Z,21586.47
2023-05-21T19:26:22.811Z,21558.00
2023-05-21T19:28:53.416Z,21555.97
2023-05-21T19:31:25.192Z,21501.06
2023-05-21T19:33:53.582Z,21545.78
2023-05-21T19:36:23.010Z,21525.47
2023-05-21T19:38:51.918Z,21466.50
2023-05-21T19:41:22.585Z,21472.59
2023-05-21T19:43:51.018Z,21460.41
2023-05-21T19:46:20.601Z,21454.28
2023-05-21T19:48:51.849Z,21509.19
2023-05-21T19:51:20.124Z,21448.19
2023-05-21T19:53:48.298Z,21458.38
2023-05-21T19:56:17.005Z,21513.25
2023-05-21T19:58:47.329Z,21492.94
2023-05-21T20:01:16.717Z,21427.88
2023-05-21T20:03:45.491Z,21444.13
2023-05-21T20:06:18.777Z,21436.00
2023-05-21T20:08:47.439Z,21421.75
2023-05-21T20:11:15.775Z,21395.34
2023-05-21T20:13:48.501Z,21425.84
2023-05-21T20:16:18.226Z,21415.66
2023-05-21T20:18:47.266Z,21427.88
2023-05-21T20:21:18.336Z,21415.66
2023-05-21T20:23:47.044Z,21395.34
2023-05-21T20:26:15.979Z,21433.97
2023-05-21T20:28:44.443Z,21399.41
2023-05-21T20:31:12.962Z,21413.63
2023-05-21T20:33:41.847Z,21393.31
2023-05-21T20:36:10.034Z,21427.88
2023-05-21T20:38:42.017Z,21442.09
2023-05-21T20:41:10.222Z,21454.28
2023-05-21T20:43:38.408Z,21399.41
2023-05-21T20:46:07.657Z,21387.19
2023-05-21T20:48:37.668Z,21391.28
2023-05-21T20:51:06.864Z,21397.38
2023-05-21T20:53:35.038Z,21377.03
2023-05-21T20:56:08.192Z,21368.91
2023-05-21T20:58:36.609Z,21360.78
2023-05-21T21:01:04.765Z,21326.22
2023-05-21T21:03:34.198Z,21354.66
2023-05-21T21:06:03.169Z,21324.19
2023-05-21T21:08:31.471Z,21336.38
2023-05-21T21:10:59.721Z,21309.94
2023-05-21T21:13:29.178Z,21364.84
2023-05-21T21:15:57.415Z,21395.34
2023-05-21T21:18:25.573Z,21368.91
2023-05-21T21:20:54.446Z,21366.88
2023-05-21T21:23:24.415Z,21358.75
2023-05-21T21:25:52.683Z,21314.00
2023-05-21T21:28:20.856Z,21338.41
2023-05-21T21:30:50.406Z,21340.44
2023-05-21T21:33:18.640Z,21301.81
2023-05-21T21:35:47.017Z,21330.28
2023-05-21T21:38:15.139Z,21301.81
2023-05-21T21:40:43.316Z,21248.94
2023-05-21T21:43:11.645Z,21297.75
2023-05-21T21:45:39.826Z,21307.91
2023-05-21T21:48:09.601Z,21287.56
2023-05-21T21:50:37.937Z,21330.28
2023-05-21T21:53:06.354Z,21297.75
2023-05-21T21:55:34.519Z,21275.38
2023-05-21T21:58:02.652Z,21273.34
2023-05-21T22:00:30.791Z,21285.53
2023-05-21T22:02:58.974Z,21244.88
2023-05-21T22:05:31.334Z,21281.47
2023-05-21T22:07:59.540Z,21216.41
2023-05-21T22:10:27.722Z,21240.81
2023-05-21T22:12:56.285Z,21253.00
2023-05-21T22:15:27.385Z,21261.16
2023-05-21T22:17:55.809Z,21253.00
2023-05-21T22:20:25.955Z,21212.34
2023-05-21T22:22:55.571Z,21230.66
2023-05-21T22:25:24.000Z,21214.38
2023-05-21T22:27:52.538Z,21214.38
2023-05-21T22:30:21.238Z,21183.88
2023-05-21T22:32:49.704Z,21192.03
2023-05-21T22:35:17.993Z,21206.25
2023-05-21T22:37:46.629Z,21220.47
2023-05-21T22:40:16.373Z,21137.13
2023-05-21T22:42:47.189Z,21165.59
2023-05-21T22:45:16.284Z,21163.56
2023-05-21T22:47:44.604Z,21112.72
2023-05-21T22:50:12.797Z,21131.03
2023-05-21T22:52:41.851Z,21151.34
2023-05-21T22:55:11.528Z,21108.66
2023-05-21T22:57:41.112Z,21147.28
2023-05-21T23:00:11.559Z,21065.97
2023-05-21T23:02:39.771Z,21063.94
2023-05-21T23:05:08.767Z,21114.75
2023-05-21T23:07:36.925Z,21070.03
2023-05-21T23:10:06.022Z,21100.53
2023-05-21T23:12:34.164Z,21102.56
2023-05-21T23:15:05.377Z,21041.56
2023-05-21T23:17:33.608Z,21063.94
2023-05-21T23:20:01.808Z,21033.44
2023-05-21T23:22:30.783Z,21019.22
2023-05-21T23:24:58.923Z,21031.41
2023-05-21T23:27:27.078Z,21002.94
2023-05-21T23:29:55.684Z,21021.25
2023-05-21T23:32:25.781Z,21045.63
2023-05-21T23:34:54.076Z,21023.28
2023-05-21T23:37:22.670Z,21021.25
2023-05-21T23:39:51.451Z,21004.97
2023-05-21T23:42:20.319Z,21035.47
2023-05-21T23:44:48.430Z,21002.94
2023-05-21T23:47:16.694Z,21000.91
2023-05-21T23:49:46.170Z,20988.72
2023-05-21T23:52:17.222Z,21021.25
2023-05-21T23:54:45.990Z,20978.56
2023-05-21T23:57:14.286Z,20986.69
2023-05-21T23:59:42.477Z,20982.63
